Weather at Ermelo Airport

Public forecast

Using degrees Celsius for public forecast. Weather courtesy of forecast.io.

Current aviation weather report (METAR) for Ermelo Airport

Report is more than 6 hours old.

Retrieved 2021/07/29 07:21 UTC (18 hours ago):

FAEO 290721Z 24009KT CAVOK 11/M01 Q1030

Aviation forecast (TAF) for Ermelo Airport

Forecast is more than 12 hours old.

Retrieved 2017/06/05 04:55 UTC (4 years ago):

TAF FAEO 050300Z 0504/0515 09006KT CAVOK TX18/0513ZTN05/0504Z